^^
Datos históricos de la estación: Murcia-Puente Tocinos
Diario Informe para Enero 2, 2019 Unidades:  Ambas    Inglés   Métrico
Diario Semanal Mensual Anual Configurable
  Máximo: Mínimo: Media:
Temperatura: 67.5 °F /  19.7 °C 39.7 °F /  4.3 °C 51.6 °F /  10.9 °C
Punto de rocio: 46.9 °F /  8.3 °C 32.2 °F /  0.1 °C 37.9 °F /  3.3 °C
Humedad: 85% 28% 64%
Velocidad viento: 12mph /  19.3km/h - 4mph /  6.5km/h
Racha viento: 17mph /  27.4km/h - -
Viento- - South
Presión: 30.4 in /  1027.7 hPa 30.2 in /  1022.2 hPa -
Precipitación: 0 in /  0.0 mm    
Historical Graphs
 
 
Tabla de datos para Enero 2, 2019
Hora Temperatura Punto de rocio Presión Viento Velocidad viento Racha viento Humedad Intensidad lluvia(por hora) Nubes
00:00 49.1 °F /  9.5 °C 41.9 °F /  5.5 °C 30.4in /  1027.7hPa SSW 5mph /  8.0km/h 7mph /  11.3km/h 76% 0in /  0.0mm CLR
00:05 48.9 °F /  9.4 °C 41.4 °F /  5.2 °C 30.3in /  1027.6hPa South 4.7mph /  7.6km/h 5.9mph /  9.5km/h 75% 0in /  0.0mm CLR
00:10 48.7 °F /  9.3 °C 40.8 °F /  4.9 °C 30.3in /  1027.6hPa South 4.7mph /  7.6km/h 5.9mph /  9.5km/h 74% 0in /  0.0mm CLR
00:15 48.6 °F /  9.2 °C 41 °F /  5.0 °C 30.3in /  1027.6hPa South 4.7mph /  7.6km/h 5.8mph /  9.3km/h 75% 0in /  0.0mm CLR
00:20 48.4 °F /  9.1 °C 40.5 °F /  4.7 °C 30.3in /  1027.6hPa South 4.7mph /  7.6km/h 6.9mph /  11.1km/h 74% 0in /  0.0mm CLR
00:25 48.4 °F /  9.1 °C 40.1 °F /  4.5 °C 30.3in /  1027.6hPa SSW 4.7mph /  7.6km/h 5.8mph /  9.3km/h 73% 0in /  0.0mm CLR
00:30 48.4 °F /  9.1 °C 40.1 °F /  4.5 °C 30.3in /  1027.6hPa SSW 5mph /  8.0km/h 7mph /  11.3km/h 73% 0in /  0.0mm CLR
00:35 48.6 °F /  9.2 °C 40.3 °F /  4.6 °C 30.4in /  1027.7hPa SSW 4.3mph /  6.9km/h 4.6mph /  7.4km/h 73% 0in /  0.0mm CLR
00:40 48.6 °F /  9.2 °C 40.3 °F /  4.6 °C 30.4in /  1027.7hPa SW 4mph /  6.4km/h 5.2mph /  8.4km/h 73% 0in /  0.0mm CLR
00:45 48.4 °F /  9.1 °C 40.1 °F /  4.5 °C 30.4in /  1027.7hPa WSW 4mph /  6.4km/h 4.6mph /  7.4km/h 73% 0in /  0.0mm CLR
00:50 48 °F /  8.9 °C 39.7 °F /  4.3 °C 30.3in /  1027.6hPa SW 3mph /  4.8km/h 6mph /  9.7km/h 73% 0in /  0.0mm CLR
00:55 48 °F /  8.9 °C 40.1 °F /  4.5 °C 30.3in /  1027.6hPa SW 3.6mph /  5.8km/h 6.9mph /  11.1km/h 74% 0in /  0.0mm CLR
01:00 47.8 °F /  8.8 °C 39.9 °F /  4.4 °C 30.3in /  1027.6hPa SW 5mph /  8.0km/h 6mph /  9.7km/h 74% 0in /  0.0mm CLR
01:05 47.7 °F /  8.7 °C 40.1 °F /  4.5 °C 30.3in /  1027.5hPa SSW 4mph /  6.4km/h 5.9mph /  9.5km/h 75% 0in /  0.0mm CLR
01:10 47.7 °F /  8.7 °C 40.5 °F /  4.7 °C 30.3in /  1027.5hPa SW 4mph /  6.4km/h 4.6mph /  7.4km/h 76% 0in /  0.0mm CLR
01:15 47.7 °F /  8.7 °C 40.8 °F /  4.9 °C 30.3in /  1027.5hPa SSW 4mph /  6.4km/h 6.2mph /  10.0km/h 77% 0in /  0.0mm CLR
01:20 47.5 °F /  8.6 °C 40.6 °F /  4.8 °C 30.3in /  1027.4hPa SSW 5mph /  8.0km/h 6mph /  9.7km/h 77% 0in /  0.0mm CLR
01:25 47.5 °F /  8.6 °C 40.6 °F /  4.8 °C 30.3in /  1027.4hPa SSW 4mph /  6.4km/h 5.8mph /  9.3km/h 77% 0in /  0.0mm CLR
01:30 47.5 °F /  8.6 °C 40.8 °F /  4.9 °C 30.3in /  1027.4hPa SW 5mph /  8.0km/h 6mph /  9.7km/h 78% 0in /  0.0mm CLR
01:35 47.1 °F /  8.4 °C 40.6 °F /  4.8 °C 30.3in /  1027.4hPa SW 4.3mph /  6.9km/h 5.8mph /  9.3km/h 78% 0in /  0.0mm CLR
01:40 47.1 °F /  8.4 °C 40.6 °F /  4.8 °C 30.3in /  1027.4hPa SW 5mph /  8.0km/h 6mph /  9.7km/h 78% 0in /  0.0mm CLR
01:45 46.9 °F /  8.3 °C 40.5 °F /  4.7 °C 30.3in /  1027.4hPa SW 5mph /  8.0km/h 6mph /  9.7km/h 78% 0in /  0.0mm CLR
01:50 46.8 °F /  8.2 °C 39.9 °F /  4.4 °C 30.3in /  1027.4hPa SW 3.6mph /  5.8km/h 4.6mph /  7.4km/h 77% 0in /  0.0mm CLR
01:55 46.8 °F /  8.2 °C 39.9 °F /  4.4 °C 30.3in /  1027.4hPa SW 3.6mph /  5.8km/h 4.6mph /  7.4km/h 77% 0in /  0.0mm CLR
02:00 46.8 °F /  8.2 °C 39.6 °F /  4.2 °C 30.3in /  1027.4hPa SW 3mph /  4.8km/h 6mph /  9.7km/h 76% 0in /  0.0mm CLR
02:05 46.6 °F /  8.1 °C 39.4 °F /  4.1 °C 30.3in /  1027.4hPa SSW 3.1mph /  5.0km/h 2.4mph /  3.9km/h 76% 0in /  0.0mm CLR
02:10 46.4 °F /  8.0 °C 39.2 °F /  4.0 °C 30.3in /  1027.4hPa SW 2mph /  3.2km/h 4.6mph /  7.4km/h 76% 0in /  0.0mm CLR
02:15 46.2 °F /  7.9 °C 37.9 °F /  3.3 °C 30.3in /  1027.4hPa SSW 2mph /  3.2km/h 5.8mph /  9.3km/h 73% 0in /  0.0mm CLR
02:20 46.2 °F /  7.9 °C 37.9 °F /  3.3 °C 30.3in /  1027.3hPa SW 3.1mph /  5.0km/h 4.6mph /  7.4km/h 73% 0in /  0.0mm CLR
02:25 46.2 °F /  7.9 °C 37.9 °F /  3.3 °C 30.3in /  1027.3hPa South 3.1mph /  5.0km/h 6.2mph /  10.0km/h 73% 0in /  0.0mm CLR
02:30 45.9 °F /  7.7 °C 37.9 °F /  3.3 °C 30.3in /  1027.3hPa SSE 4mph /  6.4km/h 5.8mph /  9.3km/h 74% 0in /  0.0mm CLR
02:35 45.3 °F /  7.4 °C 37.6 °F /  3.1 °C 30.3in /  1027.3hPa SW 4mph /  6.4km/h 5.8mph /  9.3km/h 74% 0in /  0.0mm CLR
02:40 45.1 °F /  7.3 °C 37.8 °F /  3.2 °C 30.3in /  1027.3hPa SSW 4.7mph /  7.6km/h 4.7mph /  7.6km/h 75% 0in /  0.0mm CLR
02:45 45.1 °F /  7.3 °C 37.8 °F /  3.2 °C 30.3in /  1027.3hPa SW 4.7mph /  7.6km/h 6.9mph /  11.1km/h 75% 0in /  0.0mm CLR
02:50 45.1 °F /  7.3 °C 37.8 °F /  3.2 °C 30.3in /  1027.3hPa SSW 4.3mph /  6.9km/h 4.6mph /  7.4km/h 75% 0in /  0.0mm CLR
02:55 45.1 °F /  7.3 °C 37.8 °F /  3.2 °C 30.3in /  1027.3hPa SSW 4.3mph /  6.9km/h 4mph /  6.4km/h 75% 0in /  0.0mm CLR
03:00 45.1 °F /  7.3 °C 37.8 °F /  3.2 °C 30.3in /  1027.3hPa SSW 3mph /  4.8km/h 5mph /  8.0km/h 75% 0in /  0.0mm CLR
03:05 45 °F /  7.2 °C 37.6 °F /  3.1 °C 30.3in /  1027.4hPa SSW 3.1mph /  5.0km/h 4.7mph /  7.6km/h 75% 0in /  0.0mm CLR
03:10 45 °F /  7.2 °C 37.2 °F /  2.9 °C 30.3in /  1027.4hPa South 3.1mph /  5.0km/h 4.6mph /  7.4km/h 74% 0in /  0.0mm CLR
03:15 45 °F /  7.2 °C 37.2 °F /  2.9 °C 30.3in /  1027.4hPa South 3.1mph /  5.0km/h 3.5mph /  5.6km/h 74% 0in /  0.0mm CLR
03:20 44.8 °F /  7.1 °C 37 °F /  2.8 °C 30.3in /  1027.4hPa South 2.9mph /  4.7km/h 4.6mph /  7.4km/h 74% 0in /  0.0mm CLR
03:25 44.6 °F /  7.0 °C 37.2 °F /  2.9 °C 30.3in /  1027.4hPa South 2mph /  3.2km/h 6mph /  9.7km/h 75% 0in /  0.0mm CLR
03:30 44.2 °F /  6.8 °C 36.5 °F /  2.5 °C 30.3in /  1027.4hPa SSE 3.6mph /  5.8km/h 4.6mph /  7.4km/h 74% 0in /  0.0mm CLR
03:35 43.9 °F /  6.6 °C 36.5 °F /  2.5 °C 30.3in /  1027.4hPa SSE 3.6mph /  5.8km/h 5.8mph /  9.3km/h 75% 0in /  0.0mm CLR
03:40 43.3 °F /  6.3 °C 36 °F /  2.2 °C 30.3in /  1027.4hPa SSE 4.3mph /  6.9km/h 5.8mph /  9.3km/h 75% 0in /  0.0mm CLR
03:45 42.8 °F /  6.0 °C 35.8 °F /  2.1 °C 30.3in /  1027.4hPa SSE 5mph /  8.0km/h 7mph /  11.3km/h 76% 0in /  0.0mm CLR
03:50 42.4 °F /  5.8 °C 35.4 °F /  1.9 °C 30.3in /  1027.3hPa SSE 5.2mph /  8.4km/h 5.8mph /  9.3km/h 76% 0in /  0.0mm CLR
03:55 42.3 °F /  5.7 °C 35.6 °F /  2.0 °C 30.3in /  1027.3hPa SSE 5mph /  8.0km/h 6mph /  9.7km/h 77% 0in /  0.0mm CLR
04:00 42.1 °F /  5.6 °C 35.8 °F /  2.1 °C 30.3in /  1027.3hPa SSE 5mph /  8.0km/h 7mph /  11.3km/h 78% 0in /  0.0mm CLR
04:05 42.1 °F /  5.6 °C 35.8 °F /  2.1 °C 30.3in /  1027.0hPa South 4.7mph /  7.6km/h 5.8mph /  9.3km/h 78% 0in /  0.0mm CLR
04:10 42.3 °F /  5.7 °C 36 °F /  2.2 °C 30.3in /  1027.0hPa South 4.3mph /  6.9km/h 5.8mph /  9.3km/h 78% 0in /  0.0mm CLR
04:15 42.4 °F /  5.8 °C 35.8 °F /  2.1 °C 30.3in /  1027.0hPa South 4.3mph /  6.9km/h 6.9mph /  11.1km/h 77% 0in /  0.0mm CLR
04:20 42.6 °F /  5.9 °C 35.6 °F /  2.0 °C 30.3in /  1026.8hPa South 5mph /  8.0km/h 6mph /  9.7km/h 76% 0in /  0.0mm CLR
04:25 42.6 °F /  5.9 °C 35.6 °F /  2.0 °C 30.3in /  1026.8hPa South 4.7mph /  7.6km/h 4.6mph /  7.4km/h 76% 0in /  0.0mm CLR
04:30 42.6 °F /  5.9 °C 35.6 °F /  2.0 °C 30.3in /  1026.8hPa South 3mph /  4.8km/h 6mph /  9.7km/h 76% 0in /  0.0mm CLR
04:35 42.6 °F /  5.9 °C 35.6 °F /  2.0 °C 30.3in /  1026.6hPa SSE 3.6mph /  5.8km/h 6.9mph /  11.1km/h 76% 0in /  0.0mm CLR
04:40 42.4 °F /  5.8 °C 35.8 °F /  2.1 °C 30.3in /  1026.6hPa South 4.3mph /  6.9km/h 6.9mph /  11.1km/h 77% 0in /  0.0mm CLR
04:45 42.4 °F /  5.8 °C 35.8 °F /  2.1 °C 30.3in /  1026.6hPa SSW 4.3mph /  6.9km/h 5.8mph /  9.3km/h 77% 0in /  0.0mm CLR
04:50 42.4 °F /  5.8 °C 35.8 °F /  2.1 °C 30.3in /  1026.4hPa SSW 5mph /  8.0km/h 6mph /  9.7km/h 77% 0in /  0.0mm CLR
04:55 42.4 °F /  5.8 °C 35.8 °F /  2.1 °C 30.3in /  1026.4hPa SSW 4mph /  6.4km/h 3.5mph /  5.6km/h 77% 0in /  0.0mm CLR
05:00 42.4 °F /  5.8 °C 35.4 °F /  1.9 °C 30.3in /  1026.4hPa SSW 2mph /  3.2km/h 4mph /  6.4km/h 76% 0in /  0.0mm CLR
05:05 42.3 °F /  5.7 °C 35.2 °F /  1.8 °C 30.3in /  1026.3hPa SSE 2.9mph /  4.7km/h 4.6mph /  7.4km/h 76% 0in /  0.0mm CLR
05:10 42.1 °F /  5.6 °C 35.1 °F /  1.7 °C 30.3in /  1026.3hPa SSE 3mph /  4.8km/h 6mph /  9.7km/h 76% 0in /  0.0mm CLR
05:15 41.5 °F /  5.3 °C 34.9 °F /  1.6 °C 30.3in /  1026.3hPa SSW 3.1mph /  5.0km/h 5.8mph /  9.3km/h 77% 0in /  0.0mm CLR
05:20 41.4 °F /  5.2 °C 35.1 °F /  1.7 °C 30.3in /  1026.2hPa South 4.3mph /  6.9km/h 5.8mph /  9.3km/h 78% 0in /  0.0mm CLR
05:25 41.2 °F /  5.1 °C 34.5 °F /  1.4 °C 30.3in /  1026.2hPa South 4.3mph /  6.9km/h 5.8mph /  9.3km/h 77% 0in /  0.0mm CLR
05:30 41.2 °F /  5.1 °C 34.5 °F /  1.4 °C 30.3in /  1026.2hPa SSW 4.3mph /  6.9km/h 5.8mph /  9.3km/h 77% 0in /  0.0mm CLR
05:35 41.4 °F /  5.2 °C 34.3 °F /  1.3 °C 30.3in /  1026.0hPa SSW 4.3mph /  6.9km/h 6.9mph /  11.1km/h 76% 0in /  0.0mm CLR
05:40 41.5 °F /  5.3 °C 34.2 °F /  1.2 °C 30.3in /  1026.0hPa SSW 4mph /  6.4km/h 4.6mph /  7.4km/h 75% 0in /  0.0mm CLR
05:45 41.7 °F /  5.4 °C 34 °F /  1.1 °C 30.3in /  1026.0hPa South 4mph /  6.4km/h 6.9mph /  11.1km/h 74% 0in /  0.0mm CLR
05:50 41.7 °F /  5.4 °C 34 °F /  1.1 °C 30.3in /  1025.9hPa SSW 4.3mph /  6.9km/h 5.8mph /  9.3km/h 74% 0in /  0.0mm CLR
05:55 41.9 °F /  5.5 °C 34.2 °F /  1.2 °C 30.3in /  1025.9hPa SSW 4.3mph /  6.9km/h 5.2mph /  8.4km/h 74% 0in /  0.0mm CLR
06:00 42.1 °F /  5.6 °C 34 °F /  1.1 °C 30.3in /  1025.9hPa SSW 5mph /  8.0km/h 6mph /  9.7km/h 73% 0in /  0.0mm CLR
06:05 41.9 °F /  5.5 °C 34 °F /  1.1 °C 30.3in /  1025.9hPa South 4.3mph /  6.9km/h 5.8mph /  9.3km/h 73% 0in /  0.0mm CLR
06:10 41.9 °F /  5.5 °C 34 °F /  1.1 °C 30.3in /  1025.9hPa South 4mph /  6.4km/h 5.8mph /  9.3km/h 73% 0in /  0.0mm CLR
06:15 41.7 °F /  5.4 °C 33.6 °F /  0.9 °C 30.3in /  1025.9hPa South 5mph /  8.0km/h 6mph /  9.7km/h 73% 0in /  0.0mm CLR
06:20 41.9 °F /  5.5 °C 34 °F /  1.1 °C 30.3in /  1025.8hPa SSW 3.6mph /  5.8km/h 4.6mph /  7.4km/h 73% 0in /  0.0mm CLR
06:25 41.9 °F /  5.5 °C 34 °F /  1.1 °C 30.3in /  1025.8hPa South 3.6mph /  5.8km/h 4.6mph /  7.4km/h 73% 0in /  0.0mm CLR
06:30 41.7 °F /  5.4 °C 33.6 °F /  0.9 °C 30.3in /  1025.8hPa South 3mph /  4.8km/h 6mph /  9.7km/h 73% 0in /  0.0mm CLR
06:35 41.7 °F /  5.4 °C 33.6 °F /  0.9 °C 30.3in /  1025.6hPa South 3.6mph /  5.8km/h 5.8mph /  9.3km/h 73% 0in /  0.0mm CLR
06:40 41.7 °F /  5.4 °C 33.6 °F /  0.9 °C 30.3in /  1025.6hPa South 5mph /  8.0km/h 6mph /  9.7km/h 73% 0in /  0.0mm CLR
06:45 41.5 °F /  5.3 °C 33.6 °F /  0.9 °C 30.3in /  1025.6hPa South 5mph /  8.0km/h 6mph /  9.7km/h 73% 0in /  0.0mm CLR
06:50 41.7 °F /  5.4 °C 33.6 °F /  0.9 °C 30.3in /  1025.7hPa South 4mph /  6.4km/h 6.9mph /  11.1km/h 73% 0in /  0.0mm CLR
06:55 41.5 °F /  5.3 °C 33.4 °F /  0.8 °C 30.3in /  1025.7hPa South 4mph /  6.4km/h 4.6mph /  7.4km/h 73% 0in /  0.0mm CLR
07:00 41.5 °F /  5.3 °C 33.4 °F /  0.8 °C 30.3in /  1025.7hPa South 5mph /  8.0km/h 6mph /  9.7km/h 73% 0in /  0.0mm CLR
07:05 41.7 °F /  5.4 °C 33.6 °F /  0.9 °C 30.3in /  1025.6hPa SSW 4.3mph /  6.9km/h 5.8mph /  9.3km/h 73% 0in /  0.0mm CLR
07:10 41.7 °F /  5.4 °C 33.8 °F /  1.0 °C 30.3in /  1025.6hPa South 5mph /  8.0km/h 6mph /  9.7km/h 73% 0in /  0.0mm CLR
07:15 41.7 °F /  5.4 °C 33.6 °F /  0.9 °C 30.3in /  1025.6hPa South 4.3mph /  6.9km/h 4.6mph /  7.4km/h 73% 0in /  0.0mm CLR
07:20 41.9 °F /  5.5 °C 33.4 °F /  0.8 °C 30.3in /  1025.6hPa SSW 3.6mph /  5.8km/h 4.6mph /  7.4km/h 72% 0in /  0.0mm CLR
07:25 42.1 °F /  5.6 °C 33.6 °F /  0.9 °C 30.3in /  1025.6hPa South 3.6mph /  5.8km/h 4.6mph /  7.4km/h 72% 0in /  0.0mm CLR
07:30 42.1 °F /  5.6 °C 33.4 °F /  0.8 °C 30.3in /  1025.6hPa SSW 3.6mph /  5.8km/h 3.5mph /  5.6km/h 71% 0in /  0.0mm CLR
07:35 42.1 °F /  5.6 °C 33.4 °F /  0.8 °C 30.3in /  1025.5hPa SSW 3.6mph /  5.8km/h 3.5mph /  5.6km/h 71% 0in /  0.0mm CLR
07:40 42.1 °F /  5.6 °C 33.6 °F /  0.9 °C 30.3in /  1025.5hPa SSW 2mph /  3.2km/h 4mph /  6.4km/h 72% 0in /  0.0mm CLR
07:45 41.7 °F /  5.4 °C 33.4 °F /  0.8 °C 30.3in /  1025.5hPa NNW 2mph /  3.2km/h 2.9mph /  4.7km/h 72% 0in /  0.0mm CLR
07:50 41.5 °F /  5.3 °C 33.3 °F /  0.7 °C 30.3in /  1025.8hPa NNW 2mph /  3.2km/h 3mph /  4.8km/h 72% 0in /  0.0mm CLR
07:55 41.2 °F /  5.1 °C 33.3 °F /  0.7 °C 30.3in /  1025.8hPa NNW 1.8mph /  2.9km/h   73% 0in /  0.0mm CLR
08:00 40.8 °F /  4.9 °C 33.3 °F /  0.7 °C 30.3in /  1025.8hPa Calm     74% 0in /  0.0mm CLR
08:05 40.5 °F /  4.7 °C 33.3 °F /  0.7 °C 30.3in /  1025.9hPa Calm     75% 0in /  0.0mm CLR
08:10 40.3 °F /  4.6 °C 32.5 °F /  0.3 °C 30.3in /  1025.9hPa Calm   3.5mph /  5.6km/h 74% 0in /  0.0mm CLR
08:15 41 °F /  5.0 °C 32.4 °F /  0.2 °C 30.3in /  1025.9hPa Calm   5.8mph /  9.3km/h 71% 0in /  0.0mm CLR
08:20 41.4 °F /  5.2 °C 32.7 °F /  0.4 °C 30.3in /  1025.9hPa WSW 3mph /  4.8km/h 6mph /  9.7km/h 71% 0in /  0.0mm CLR
08:25 41.5 °F /  5.3 °C 32.7 °F /  0.4 °C 30.3in /  1025.9hPa SW 3.1mph /  5.0km/h 5.8mph /  9.3km/h 71% 0in /  0.0mm CLR
08:30 41.5 °F /  5.3 °C 32.7 °F /  0.4 °C 30.3in /  1025.9hPa SW 4.3mph /  6.9km/h 4.6mph /  7.4km/h 71% 0in /  0.0mm CLR
08:35 41.5 °F /  5.3 °C 32.5 °F /  0.3 °C 30.3in /  1026.1hPa SW 4.3mph /  6.9km/h 3.5mph /  5.6km/h 70% 0in /  0.0mm CLR
08:40 41.7 °F /  5.4 °C 33.1 °F /  0.6 °C 30.3in /  1026.1hPa SW 2.9mph /  4.7km/h 3.5mph /  5.6km/h 71% 0in /  0.0mm CLR
08:45 41.4 °F /  5.2 °C 33.1 °F /  0.6 °C 30.3in /  1026.1hPa SSE 2.9mph /  4.7km/h 4.6mph /  7.4km/h 72% 0in /  0.0mm CLR
08:50 40.8 °F /  4.9 °C 32.7 °F /  0.4 °C 30.3in /  1026.2hPa SSE 3mph /  4.8km/h 7mph /  11.3km/h 73% 0in /  0.0mm CLR
08:55 40.1 °F /  4.5 °C 32.7 °F /  0.4 °C 30.3in /  1026.2hPa SE 3.1mph /  5.0km/h 7.6mph /  12.2km/h 75% 0in /  0.0mm CLR
09:00 39.7 °F /  4.3 °C 32.7 °F /  0.4 °C 30.3in /  1026.2hPa SE 5mph /  8.0km/h 8mph /  12.9km/h 76% 0in /  0.0mm CLR
09:05 39.9 °F /  4.4 °C 33.3 °F /  0.7 °C 30.3in /  1026.4hPa SSE 4mph /  6.4km/h 5.8mph /  9.3km/h 77% 0in /  0.0mm CLR
09:10 39.9 °F /  4.4 °C 33.1 °F /  0.6 °C 30.3in /  1026.4hPa SSE 3.6mph /  5.8km/h 5.8mph /  9.3km/h 76% 0in /  0.0mm CLR
09:15 40.1 °F /  4.5 °C 33.1 °F /  0.6 °C 30.3in /  1026.4hPa SSE 3.6mph /  5.8km/h 5.8mph /  9.3km/h 76% 0in /  0.0mm CLR
09:20 40.5 °F /  4.7 °C 33.4 °F /  0.8 °C 30.3in /  1026.4hPa SSE 4mph /  6.4km/h 5.9mph /  9.5km/h 76% 0in /  0.0mm CLR
09:25 40.6 °F /  4.8 °C 33.3 °F /  0.7 °C 30.3in /  1026.4hPa SSE 4mph /  6.4km/h 4.6mph /  7.4km/h 75% 0in /  0.0mm CLR
09:30 41 °F /  5.0 °C 33.6 °F /  0.9 °C 30.3in /  1026.4hPa ESE 4mph /  6.4km/h 5.2mph /  8.4km/h 75% 0in /  0.0mm CLR
09:35 41.5 °F /  5.3 °C 34 °F /  1.1 °C 30.3in /  1026.5hPa SE 4mph /  6.4km/h 4.6mph /  7.4km/h 74% 0in /  0.0mm CLR
09:40 42.1 °F /  5.6 °C 34.3 °F /  1.3 °C 30.3in /  1026.5hPa ESE 3.1mph /  5.0km/h 4.7mph /  7.6km/h 74% 0in /  0.0mm CLR
09:45 42.3 °F /  5.7 °C 34.2 °F /  1.2 °C 30.3in /  1026.5hPa SE 3.1mph /  5.0km/h 3.6mph /  5.8km/h 73% 0in /  0.0mm CLR
09:50 42.4 °F /  5.8 °C 34.3 °F /  1.3 °C 30.3in /  1026.7hPa SE 3mph /  4.8km/h 5mph /  8.0km/h 73% 0in /  0.0mm CLR
09:55 43 °F /  6.1 °C 34.5 °F /  1.4 °C 30.3in /  1026.7hPa SSE 3.1mph /  5.0km/h 4.6mph /  7.4km/h 72% 0in /  0.0mm CLR
10:00 43.3 °F /  6.3 °C 34.9 °F /  1.6 °C 30.3in /  1026.7hPa SSE 3mph /  4.8km/h 6mph /  9.7km/h 72% 0in /  0.0mm CLR
10:05 43.7 °F /  6.5 °C 34.5 °F /  1.4 °C 30.3in /  1026.7hPa SSW 3.1mph /  5.0km/h 5.8mph /  9.3km/h 70% 0in /  0.0mm CLR
10:10 44.2 °F /  6.8 °C 34.7 °F /  1.5 °C 30.3in /  1026.7hPa SW 3.6mph /  5.8km/h 4.6mph /  7.4km/h 69% 0in /  0.0mm CLR
10:15 45 °F /  7.2 °C 35.1 °F /  1.7 °C 30.3in /  1026.7hPa SW 3.6mph /  5.8km/h 3.5mph /  5.6km/h 68% 0in /  0.0mm CLR
10:20 45.7 °F /  7.6 °C 34.5 °F /  1.4 °C 30.3in /  1026.7hPa South 3.1mph /  5.0km/h 4.6mph /  7.4km/h 65% 0in /  0.0mm CLR
10:25 46.6 °F /  8.1 °C 35.1 °F /  1.7 °C 30.3in /  1026.7hPa South 3.1mph /  5.0km/h 4.6mph /  7.4km/h 64% 0in /  0.0mm CLR
10:30 47.5 °F /  8.6 °C 35.1 °F /  1.7 °C 30.3in /  1026.7hPa SW 2.9mph /  4.7km/h 4.6mph /  7.4km/h 62% 0in /  0.0mm CLR
10:35 48 °F /  8.9 °C 34.9 °F /  1.6 °C 30.3in /  1026.7hPa SSW 2.9mph /  4.7km/h 4.6mph /  7.4km/h 60% 0in /  0.0mm CLR
10:40 48.6 °F /  9.2 °C 34.9 °F /  1.6 °C 30.3in /  1026.7hPa South 3mph /  4.8km/h 6mph /  9.7km/h 59% 0in /  0.0mm CLR
10:45 49.6 °F /  9.8 °C 35.1 °F /  1.7 °C 30.3in /  1026.7hPa SSW 3.1mph /  5.0km/h 4.7mph /  7.6km/h 57% 0in /  0.0mm CLR
10:50 49.8 °F /  9.9 °C 33.8 °F /  1.0 °C 30.3in /  1026.5hPa SW 3.1mph /  5.0km/h 5.8mph /  9.3km/h 54% 0in /  0.0mm CLR
10:55 50.4 °F /  10.2 °C 33.4 °F /  0.8 °C 30.3in /  1026.5hPa SW 3.1mph /  5.0km/h 4.6mph /  7.4km/h 52% 0in /  0.0mm CLR
11:00 50.7 °F /  10.4 °C 32.7 °F /  0.4 °C 30.3in /  1026.5hPa SW 2mph /  3.2km/h 5mph /  8.0km/h 50% 0in /  0.0mm CLR
11:05 51.3 °F /  10.7 °C 32.2 °F /  0.1 °C 30.3in /  1026.4hPa WNW 2.9mph /  4.7km/h 3.6mph /  5.8km/h 48% 0in /  0.0mm CLR
11:10 51.6 °F /  10.9 °C 33.1 °F /  0.6 °C 30.3in /  1026.4hPa West 2mph /  3.2km/h 5mph /  8.0km/h 49% 0in /  0.0mm CLR
11:15 53.1 °F /  11.7 °C 33.3 °F /  0.7 °C 30.3in /  1026.4hPa WNW 2.4mph /  3.9km/h   47% 0in /  0.0mm CLR
11:20 54 °F /  12.2 °C 33.1 °F /  0.6 °C 30.3in /  1026.1hPa WNW 1mph /  1.6km/h 2mph /  3.2km/h 45% 0in /  0.0mm CLR
11:25 54.7 °F /  12.6 °C 33.3 °F /  0.7 °C 30.3in /  1026.1hPa WNW 1.4mph /  2.3km/h 2.3mph /  3.7km/h 44% 0in /  0.0mm CLR
11:30 54.9 °F /  12.7 °C 33.3 °F /  0.7 °C 30.3in /  1026.1hPa WNW 1mph /  1.6km/h 3mph /  4.8km/h 44% 0in /  0.0mm CLR
11:35 54.9 °F /  12.7 °C 34 °F /  1.1 °C 30.3in /  1025.8hPa WNW 1.4mph /  2.3km/h 2.3mph /  3.7km/h 45% 0in /  0.0mm CLR
11:40 55 °F /  12.8 °C 34.7 °F /  1.5 °C 30.3in /  1025.8hPa SW 2mph /  3.2km/h 5mph /  8.0km/h 46% 0in /  0.0mm CLR
11:45 55.6 °F /  13.1 °C 34.5 °F /  1.4 °C 30.3in /  1025.8hPa SSW 1.8mph /  2.9km/h 4.7mph /  7.6km/h 45% 0in /  0.0mm CLR
11:50 55.9 °F /  13.3 °C 34.3 °F /  1.3 °C 30.3in /  1025.7hPa South 2mph /  3.2km/h 5mph /  8.0km/h 44% 0in /  0.0mm CLR
11:55 56.5 °F /  13.6 °C 34.9 °F /  1.6 °C 30.3in /  1025.7hPa South 2.9mph /  4.7km/h 4.6mph /  7.4km/h 44% 0in /  0.0mm CLR
12:00 56.8 °F /  13.8 °C 35.2 °F /  1.8 °C 30.3in /  1025.7hPa SSW 3mph /  4.8km/h 7mph /  11.3km/h 44% 0in /  0.0mm CLR
12:05 57.6 °F /  14.2 °C 34.5 °F /  1.4 °C 30.3in /  1025.2hPa SSW 3.1mph /  5.0km/h 4.6mph /  7.4km/h 42% 0in /  0.0mm CLR
12:10 58.3 °F /  14.6 °C 35.2 °F /  1.8 °C 30.3in /  1025.2hPa SSE 4mph /  6.4km/h 4.6mph /  7.4km/h 42% 0in /  0.0mm CLR
12:15 58.8 °F /  14.9 °C 35.2 °F /  1.8 °C 30.3in /  1025.2hPa SSE 4mph /  6.4km/h 5.8mph /  9.3km/h 41% 0in /  0.0mm CLR
12:20 59.4 °F /  15.2 °C 35.6 °F /  2.0 °C 30.3in /  1024.9hPa SSW 3.6mph /  5.8km/h 5.8mph /  9.3km/h 41% 0in /  0.0mm CLR
12:25 59.5 °F /  15.3 °C 35.8 °F /  2.1 °C 30.3in /  1024.9hPa SW 3.6mph /  5.8km/h 6.9mph /  11.1km/h 41% 0in /  0.0mm CLR
12:30 60.1 °F /  15.6 °C 35.8 °F /  2.1 °C 30.3in /  1024.9hPa SSW 4mph /  6.4km/h 5.8mph /  9.3km/h 40% 0in /  0.0mm CLR
12:35 60.4 °F /  15.8 °C 35.2 °F /  1.8 °C 30.3in /  1024.5hPa SSW 4mph /  6.4km/h 6.9mph /  11.1km/h 39% 0in /  0.0mm CLR
12:40 60.6 °F /  15.9 °C 34.9 °F /  1.6 °C 30.3in /  1024.5hPa SW 4.7mph /  7.6km/h 9.2mph /  14.8km/h 38% 0in /  0.0mm CLR
12:45 61 °F /  16.1 °C 35.2 °F /  1.8 °C 30.3in /  1024.5hPa WSW 4.7mph /  7.6km/h 10.7mph /  17.2km/h 38% 0in /  0.0mm CLR
12:50 61.2 °F /  16.2 °C 34.7 °F /  1.5 °C 30.3in /  1024.3hPa West 6.2mph /  10.0km/h 6.9mph /  11.1km/h 37% 0in /  0.0mm CLR
12:55 61.5 °F /  16.4 °C 35.1 °F /  1.7 °C 30.3in /  1024.3hPa South 6.2mph /  10.0km/h 5.8mph /  9.3km/h 37% 0in /  0.0mm CLR
13:00 61.9 °F /  16.6 °C 34.5 °F /  1.4 °C 30.3in /  1024.3hPa SW 5mph /  8.0km/h 10mph /  16.1km/h 36% 0in /  0.0mm CLR
13:05 62.2 °F /  16.8 °C 34.2 °F /  1.2 °C 30.2in /  1024.0hPa SSW 4.7mph /  7.6km/h 8.1mph /  13.0km/h 35% 0in /  0.0mm CLR
13:10 62.6 °F /  17.0 °C 34.5 °F /  1.4 °C 30.2in /  1024.0hPa SSW 6mph /  9.7km/h 9mph /  14.5km/h 35% 0in /  0.0mm CLR
13:15 63 °F /  17.2 °C 34.2 °F /  1.2 °C 30.2in /  1024.0hPa SSW 5.9mph /  9.5km/h 6.9mph /  11.1km/h 34% 0in /  0.0mm CLR
13:20 63.1 °F /  17.3 °C 34.3 °F /  1.3 °C 30.2in /  1023.7hPa SW 5.4mph /  8.7km/h 6.9mph /  11.1km/h 34% 0in /  0.0mm CLR
13:25 63.5 °F /  17.5 °C 34 °F /  1.1 °C 30.2in /  1023.7hPa WSW 5.4mph /  8.7km/h 5.8mph /  9.3km/h 33% 0in /  0.0mm CLR
13:30 63.9 °F /  17.7 °C 33.4 °F /  0.8 °C 30.2in /  1023.7hPa WSW 5mph /  8.0km/h 10mph /  16.1km/h 32% 0in /  0.0mm CLR
13:35 63.9 °F /  17.7 °C 33.4 °F /  0.8 °C 30.2in /  1023.5hPa SW 4.7mph /  7.6km/h 8.7mph /  14.0km/h 32% 0in /  0.0mm CLR
13:40 64 °F /  17.8 °C 33.6 °F /  0.9 °C 30.2in /  1023.5hPa WSW 5.4mph /  8.7km/h 6.9mph /  11.1km/h 32% 0in /  0.0mm CLR
13:45 64.4 °F /  18.0 °C 33.1 °F /  0.6 °C 30.2in /  1023.5hPa SW 5.4mph /  8.7km/h 9.2mph /  14.8km/h 31% 0in /  0.0mm CLR
13:50 64.8 °F /  18.2 °C 33.4 °F /  0.8 °C 30.2in /  1023.3hPa SW 5.9mph /  9.5km/h 8.1mph /  13.0km/h 31% 0in /  0.0mm CLR
13:55 64.9 °F /  18.3 °C 33.6 °F /  0.9 °C 30.2in /  1023.3hPa WSW 5.9mph /  9.5km/h 6.9mph /  11.1km/h 31% 0in /  0.0mm CLR
14:00 65.1 °F /  18.4 °C 32.9 °F /  0.5 °C 30.2in /  1023.3hPa SW 6mph /  9.7km/h 9mph /  14.5km/h 30% 0in /  0.0mm CLR
14:05 65.1 °F /  18.4 °C 33.6 °F /  0.9 °C 30.2in /  1023.0hPa WSW 5.4mph /  8.7km/h 6.9mph /  11.1km/h 31% 0in /  0.0mm CLR
14:10 65.1 °F /  18.4 °C 33.6 °F /  0.9 °C 30.2in /  1023.0hPa WSW 6.2mph /  10.0km/h 9.2mph /  14.8km/h 31% 0in /  0.0mm CLR
14:15 65.3 °F /  18.5 °C 34 °F /  1.1 °C 30.2in /  1023.0hPa SW 6.2mph /  10.0km/h 9.2mph /  14.8km/h 31% 0in /  0.0mm CLR
14:20 65.1 °F /  18.4 °C 33.6 °F /  0.9 °C 30.2in /  1022.9hPa SW 5.9mph /  9.5km/h 10.4mph /  16.7km/h 31% 0in /  0.0mm CLR
14:25 65.1 °F /  18.4 °C 33.6 °F /  0.9 °C 30.2in /  1022.9hPa SSE 5.9mph /  9.5km/h 8.1mph /  13.0km/h 31% 0in /  0.0mm CLR
14:30 65.5 °F /  18.6 °C 34 °F /  1.1 °C 30.2in /  1022.9hPa SW 7mph /  11.3km/h 10mph /  16.1km/h 31% 0in /  0.0mm CLR
14:35 65.5 °F /  18.6 °C 34 °F /  1.1 °C 30.2in /  1022.7hPa SSW 6.4mph /  10.3km/h 6.9mph /  11.1km/h 31% 0in /  0.0mm CLR
14:40 65.7 °F /  18.7 °C 34.2 °F /  1.2 °C 30.2in /  1022.7hPa WSW 6.2mph /  10.0km/h 8.1mph /  13.0km/h 31% 0in /  0.0mm CLR
14:45 65.8 °F /  18.8 °C 33.4 °F /  0.8 °C 30.2in /  1022.7hPa SSW 6.2mph /  10.0km/h 6.9mph /  11.1km/h 30% 0in /  0.0mm CLR
14:50 66 °F /  18.9 °C 33.6 °F /  0.9 °C 30.2in /  1022.5hPa SSW 5.2mph /  8.4km/h 8.1mph /  13.0km/h 30% 0in /  0.0mm CLR
14:55 66.2 °F /  19.0 °C 33.8 °F /  1.0 °C 30.2in /  1022.5hPa SSW 5.2mph /  8.4km/h 6.9mph /  11.1km/h 30% 0in /  0.0mm CLR
15:00 66.2 °F /  19.0 °C 33.8 °F /  1.0 °C 30.2in /  1022.5hPa SSW 5mph /  8.0km/h 8mph /  12.9km/h 30% 0in /  0.0mm CLR
15:05 66 °F /  18.9 °C 33.6 °F /  0.9 °C 30.2in /  1022.3hPa SW 5.2mph /  8.4km/h 8.1mph /  13.0km/h 30% 0in /  0.0mm CLR
15:10 66 °F /  18.9 °C 33.6 °F /  0.9 °C 30.2in /  1022.3hPa South 6.2mph /  10.0km/h 6.9mph /  11.1km/h 30% 0in /  0.0mm CLR
15:15 66.2 °F /  19.0 °C 33.8 °F /  1.0 °C 30.2in /  1022.3hPa SSW 6.2mph /  10.0km/h 6.9mph /  11.1km/h 30% 0in /  0.0mm CLR
15:20 66.2 °F /  19.0 °C 33.1 °F /  0.6 °C 30.2in /  1022.3hPa South 5.2mph /  8.4km/h 8.7mph /  14.0km/h 29% 0in /  0.0mm FEW
15:25 66.4 °F /  19.1 °C 33.1 °F /  0.6 °C 30.2in /  1022.3hPa SW 5.2mph /  8.4km/h 8.1mph /  13.0km/h 29% 0in /  0.0mm
15:30 66.4 °F /  19.1 °C 34 °F /  1.1 °C 30.2in /  1022.3hPa SSW 6mph /  9.7km/h 9mph /  14.5km/h 30% 0in /  0.0mm FEW
15:35 66.6 °F /  19.2 °C 33.3 °F /  0.7 °C 30.2in /  1022.2hPa SSW 5.9mph /  9.5km/h 6.9mph /  11.1km/h 29% 0in /  0.0mm
15:40 66.6 °F /  19.2 °C 33.3 °F /  0.7 °C 30.2in /  1022.2hPa SSW 5.2mph /  8.4km/h 8.1mph /  13.0km/h 29% 0in /  0.0mm FEW
15:45 66.7 °F /  19.3 °C 33.4 °F /  0.8 °C 30.2in /  1022.2hPa SSW 5.2mph /  8.4km/h 5.8mph /  9.3km/h 29% 0in /  0.0mm
15:50 66.7 °F /  19.3 °C 33.4 °F /  0.8 °C 30.2in /  1022.2hPa SSE 5.2mph /  8.4km/h 4.6mph /  7.4km/h 29% 0in /  0.0mm FEW
15:55 66.9 °F /  19.4 °C 33.6 °F /  0.9 °C 30.2in /  1022.2hPa South 5.2mph /  8.4km/h 6.9mph /  11.1km/h 29% 0in /  0.0mm
16:00 66.9 °F /  19.4 °C 33.6 °F /  0.9 °C 30.2in /  1022.2hPa SSE 5mph /  8.0km/h 6mph /  9.7km/h 29% 0in /  0.0mm CLR
16:05 66.9 °F /  19.4 °C 32.7 °F /  0.4 °C 30.2in /  1022.3hPa South 4mph /  6.4km/h 5.8mph /  9.3km/h 28% 0in /  0.0mm
16:10 67.3 °F /  19.6 °C 34 °F /  1.1 °C 30.2in /  1022.3hPa SSE 2.9mph /  4.7km/h 4.6mph /  7.4km/h 29% 0in /  0.0mm FEW
16:15 67.5 °F /  19.7 °C 34.2 °F /  1.2 °C 30.2in /  1022.3hPa SE 2.9mph /  4.7km/h 4.7mph /  7.6km/h 29% 0in /  0.0mm
16:20 67.5 °F /  19.7 °C 34.2 °F /  1.2 °C 30.2in /  1022.4hPa South 3.1mph /  5.0km/h 4.6mph /  7.4km/h 29% 0in /  0.0mm CLR
16:25 67.5 °F /  19.7 °C 33.3 °F /  0.7 °C 30.2in /  1022.4hPa South 3.1mph /  5.0km/h 5.2mph /  8.4km/h 28% 0in /  0.0mm CLR
16:30 67.5 °F /  19.7 °C 33.3 °F /  0.7 °C 30.2in /  1022.4hPa South 5mph /  8.0km/h 5mph /  8.0km/h 28% 0in /  0.0mm CLR
16:35 67.5 °F /  19.7 °C 33.3 °F /  0.7 °C 30.2in /  1022.5hPa SE 4mph /  6.4km/h 4.6mph /  7.4km/h 28% 0in /  0.0mm CLR
16:40 67.5 °F /  19.7 °C 33.3 °F /  0.7 °C 30.2in /  1022.5hPa SSE 2.9mph /  4.7km/h 5.2mph /  8.4km/h 28% 0in /  0.0mm CLR
16:45 67.5 °F /  19.7 °C 33.3 °F /  0.7 °C 30.2in /  1022.5hPa South 2.9mph /  4.7km/h 5.8mph /  9.3km/h 28% 0in /  0.0mm CLR
16:50 67.5 °F /  19.7 °C 33.3 °F /  0.7 °C 30.2in /  1022.5hPa SSE 3.6mph /  5.8km/h 4.6mph /  7.4km/h 28% 0in /  0.0mm FEW
16:55 67.3 °F /  19.6 °C 34 °F /  1.1 °C 30.2in /  1022.5hPa SE 3.6mph /  5.8km/h 4.7mph /  7.6km/h 29% 0in /  0.0mm
17:00 67.3 °F /  19.6 °C 34 °F /  1.1 °C 30.2in /  1022.5hPa SSE 3mph /  4.8km/h 6mph /  9.7km/h 29% 0in /  0.0mm CLR
17:05 67.1 °F /  19.5 °C 33.8 °F /  1.0 °C 30.2in /  1022.7hPa SSE 3.6mph /  5.8km/h 4.6mph /  7.4km/h 29% 0in /  0.0mm
17:10 67.3 °F /  19.6 °C 34 °F /  1.1 °C 30.2in /  1022.7hPa SSE 3mph /  4.8km/h 5mph /  8.0km/h 29% 0in /  0.0mm FEW
17:15 66.9 °F /  19.4 °C 33.6 °F /  0.9 °C 30.2in /  1022.7hPa SSE 3.1mph /  5.0km/h 4.6mph /  7.4km/h 29% 0in /  0.0mm
17:20 66.6 °F /  19.2 °C 35.1 °F /  1.7 °C 30.2in /  1022.9hPa NE 2.4mph /  3.9km/h 11.5mph /  18.5km/h 31% 0in /  0.0mm FEW
17:25 65.1 °F /  18.4 °C 38.1 °F /  3.4 °C 30.2in /  1022.9hPa NE 2.4mph /  3.9km/h 11.8mph /  19.0km/h 37% 0in /  0.0mm
17:30 63.7 °F /  17.6 °C 41.4 °F /  5.2 °C 30.2in /  1022.9hPa NNE 7mph /  11.3km/h 17mph /  27.4km/h 44% 0in /  0.0mm FEW
17:35 61.3 °F /  16.3 °C 44.1 °F /  6.7 °C 30.2in /  1023.2hPa NNE 7.4mph /  11.9km/h 16.1mph /  25.9km/h 53% 0in /  0.0mm FEW
17:40 60.3 °F /  15.7 °C 45 °F /  7.2 °C 30.2in /  1023.2hPa NNE 12mph /  19.3km/h 15mph /  24.1km/h 57% 0in /  0.0mm FEW
17:45 59.4 °F /  15.2 °C 45 °F /  7.2 °C 30.2in /  1023.2hPa WNW 11.2mph /  18.0km/h 15mph /  24.1km/h 59% 0in /  0.0mm
17:50 58.8 °F /  14.9 °C 45 °F /  7.2 °C 30.2in /  1023.4hPa NE 10.2mph /  16.4km/h 16.1mph /  25.9km/h 60% 0in /  0.0mm FEW
17:55 58.5 °F /  14.7 °C 44.6 °F /  7.0 °C 30.2in /  1023.4hPa ENE 10.2mph /  16.4km/h 12.7mph /  20.4km/h 60% 0in /  0.0mm
18:00 58.3 °F /  14.6 °C 44.1 °F /  6.7 °C 30.2in /  1023.4hPa NE 10mph /  16.1km/h 14mph /  22.5km/h 59% 0in /  0.0mm CLR
18:05 57.9 °F /  14.4 °C 43.7 °F /  6.5 °C 30.2in /  1023.7hPa NE 10mph /  16.1km/h 11.5mph /  18.5km/h 59% 0in /  0.0mm CLR
18:10 57.7 °F /  14.3 °C 43.5 °F /  6.4 °C 30.2in /  1023.7hPa ENE 8.5mph /  13.7km/h 10.7mph /  17.2km/h 59% 0in /  0.0mm FEW
18:15 57.6 °F /  14.2 °C 43.3 °F /  6.3 °C 30.2in /  1023.7hPa ENE 8.5mph /  13.7km/h 8.1mph /  13.0km/h 59% 0in /  0.0mm CLR
18:20 57.4 °F /  14.1 °C 43.5 °F /  6.4 °C 30.2in /  1024.0hPa NE 7mph /  11.3km/h 11mph /  17.7km/h 60% 0in /  0.0mm FEW
18:25 56.8 °F /  13.8 °C 43.5 °F /  6.4 °C 30.2in /  1024.0hPa NNE 6.9mph /  11.1km/h 8.1mph /  13.0km/h 61% 0in /  0.0mm CLR
18:30 56.5 °F /  13.6 °C 44.1 °F /  6.7 °C 30.2in /  1024.0hPa NE 6.2mph /  10.0km/h 10.4mph /  16.7km/h 63% 0in /  0.0mm FEW
18:35 56.1 °F /  13.4 °C 44.4 °F /  6.9 °C 30.3in /  1024.3hPa NNE 6.2mph /  10.0km/h 10.4mph /  16.7km/h 65% 0in /  0.0mm CLR
18:40 55.9 °F /  13.3 °C 45.1 °F /  7.3 °C 30.3in /  1024.3hPa NNE 7.4mph /  11.9km/h 10.4mph /  16.7km/h 67% 0in /  0.0mm FEW
18:45 55.8 °F /  13.2 °C 45.3 °F /  7.4 °C 30.3in /  1024.3hPa NE 7.4mph /  11.9km/h 9.2mph /  14.8km/h 68% 0in /  0.0mm FEW
18:50 55.6 °F /  13.1 °C 46.2 °F /  7.9 °C 30.3in /  1024.6hPa NNE 8.1mph /  13.0km/h 10.4mph /  16.7km/h 71% 0in /  0.0mm FEW
18:55 55.6 °F /  13.1 °C 46.2 °F /  7.9 °C 30.3in /  1024.6hPa NE 8.1mph /  13.0km/h 11.5mph /  18.5km/h 71% 0in /  0.0mm CLR
19:00 55.4 °F /  13.0 °C 46.6 °F /  8.1 °C 30.3in /  1024.6hPa NE 9mph /  14.5km/h 13mph /  20.9km/h 72% 0in /  0.0mm CLR
19:05 55.2 °F /  12.9 °C 46.2 °F /  7.9 °C 30.3in /  1024.8hPa NE 8.7mph /  14.0km/h 9.2mph /  14.8km/h 72% 0in /  0.0mm CLR
19:10 55 °F /  12.8 °C 46.2 °F /  7.9 °C 30.3in /  1024.8hPa NE 7.4mph /  11.9km/h 12.7mph /  20.4km/h 72% 0in /  0.0mm FEW
19:15 54.9 °F /  12.7 °C 46 °F /  7.8 °C 30.3in /  1024.8hPa NE 7.4mph /  11.9km/h 9.7mph /  15.6km/h 72% 0in /  0.0mm CLR
19:20 54.7 °F /  12.6 °C 45.5 °F /  7.5 °C 30.3in /  1025.0hPa NE 7mph /  11.3km/h 10mph /  16.1km/h 71% 0in /  0.0mm CLR
19:25 54.5 °F /  12.5 °C 45.7 °F /  7.6 °C 30.3in /  1025.0hPa NNE 6.9mph /  11.1km/h 5.2mph /  8.4km/h 72% 0in /  0.0mm CLR
19:30 54.3 °F /  12.4 °C 45.9 °F /  7.7 °C 30.3in /  1025.0hPa NE 5.2mph /  8.4km/h 6.9mph /  11.1km/h 73% 0in /  0.0mm CLR
19:35 54 °F /  12.2 °C 45.9 °F /  7.7 °C 30.3in /  1025.2hPa NE 5.2mph /  8.4km/h 8.1mph /  13.0km/h 74% 0in /  0.0mm CLR
19:40 53.8 °F /  12.1 °C 46 °F /  7.8 °C 30.3in /  1025.2hPa NE 5.2mph /  8.4km/h 5.8mph /  9.3km/h 75% 0in /  0.0mm CLR
19:45 53.6 °F /  12.0 °C 46.2 °F /  7.9 °C 30.3in /  1025.2hPa NE 5.2mph /  8.4km/h 6.9mph /  11.1km/h 76% 0in /  0.0mm CLR
19:50 53.4 °F /  11.9 °C 46 °F /  7.8 °C 30.3in /  1025.2hPa NNE 5.4mph /  8.7km/h 8.1mph /  13.0km/h 76% 0in /  0.0mm CLR
19:55 53.4 °F /  11.9 °C 46.4 °F /  8.0 °C 30.3in /  1025.2hPa NNE 5.4mph /  8.7km/h 6.9mph /  11.1km/h 77% 0in /  0.0mm CLR
20:00 53.1 °F /  11.7 °C 46.4 °F /  8.0 °C 30.3in /  1025.2hPa NNE 6mph /  9.7km/h 7mph /  11.3km/h 78% 0in /  0.0mm CLR
20:05 52.9 °F /  11.6 °C 46.6 °F /  8.1 °C 30.3in /  1025.2hPa NNE 5.4mph /  8.7km/h 6.9mph /  11.1km/h 79% 0in /  0.0mm CLR
20:10 52.7 °F /  11.5 °C 46.4 °F /  8.0 °C 30.3in /  1025.2hPa NNE 4.7mph /  7.6km/h 5.9mph /  9.5km/h 79% 0in /  0.0mm CLR
20:15 52.5 °F /  11.4 °C 46.6 °F /  8.1 °C 30.3in /  1025.2hPa NNE 4.7mph /  7.6km/h 5.8mph /  9.3km/h 80% 0in /  0.0mm CLR
20:20 52.5 °F /  11.4 °C 46.6 °F /  8.1 °C 30.3in /  1025.5hPa NNE 4.3mph /  6.9km/h 5.8mph /  9.3km/h 80% 0in /  0.0mm CLR
20:25 52.3 °F /  11.3 °C 46.8 °F /  8.2 °C 30.3in /  1025.5hPa North 4.3mph /  6.9km/h 4.6mph /  7.4km/h 81% 0in /  0.0mm CLR
20:30 52.2 °F /  11.2 °C 46.6 °F /  8.1 °C 30.3in /  1025.5hPa NNE 3mph /  4.8km/h 5mph /  8.0km/h 81% 0in /  0.0mm CLR
20:35 52.2 °F /  11.2 °C 46.6 °F /  8.1 °C 30.3in /  1025.6hPa NNW 3.1mph /  5.0km/h 2.3mph /  3.7km/h 81% 0in /  0.0mm CLR
20:40 52 °F /  11.1 °C 46.8 °F /  8.2 °C 30.3in /  1025.6hPa NNW 1.4mph /  2.3km/h   82% 0in /  0.0mm CLR
20:45 52 °F /  11.1 °C 46.8 °F /  8.2 °C 30.3in /  1025.6hPa NNE 1.4mph /  2.3km/h 4.6mph /  7.4km/h 82% 0in /  0.0mm CLR
20:50 52 °F /  11.1 °C 46.9 °F /  8.3 °C 30.3in /  1025.7hPa North 1.4mph /  2.3km/h   83% 0in /  0.0mm CLR
20:55 52 °F /  11.1 °C 46.9 °F /  8.3 °C 30.3in /  1025.7hPa NNW 1.4mph /  2.3km/h   83% 0in /  0.0mm CLR
21:00 51.8 °F /  11.0 °C 46.8 °F /  8.2 °C 30.3in /  1025.7hPa Calm   2mph /  3.2km/h 83% 0in /  0.0mm CLR
21:05 51.6 °F /  10.9 °C 46.9 °F /  8.3 °C 30.3in /  1025.8hPa Calm   4.6mph /  7.4km/h 84% 0in /  0.0mm CLR
21:10 52 °F /  11.1 °C 46.9 °F /  8.3 °C 30.3in /  1025.8hPa NNE 2mph /  3.2km/h 3.5mph /  5.6km/h 83% 0in /  0.0mm CLR
21:15 52 °F /  11.1 °C 46.9 °F /  8.3 °C 30.3in /  1025.8hPa NNE 2mph /  3.2km/h 3.5mph /  5.6km/h 83% 0in /  0.0mm CLR
21:20 52 °F /  11.1 °C 46.9 °F /  8.3 °C 30.3in /  1025.8hPa NNE 2mph /  3.2km/h   83% 0in /  0.0mm CLR
21:25 52.2 °F /  11.2 °C 46.8 °F /  8.2 °C 30.3in /  1025.8hPa NNE 2mph /  3.2km/h   82% 0in /  0.0mm CLR
21:30 52.2 °F /  11.2 °C 46.8 °F /  8.2 °C 30.3in /  1025.8hPa Calm     82% 0in /  0.0mm CLR
21:35 51.8 °F /  11.0 °C 46.6 °F /  8.1 °C 30.3in /  1025.8hPa Calm     82% 0in /  0.0mm CLR
21:40 51.6 °F /  10.9 °C 46.2 °F /  7.9 °C 30.3in /  1025.8hPa Calm     82% 0in /  0.0mm CLR
21:45 51.4 °F /  10.8 °C 46.4 °F /  8.0 °C 30.3in /  1025.8hPa Calm   4.6mph /  7.4km/h 83% 0in /  0.0mm CLR
21:50 51.3 °F /  10.7 °C 46.2 °F /  7.9 °C 30.3in /  1025.8hPa South 1.8mph /  2.9km/h 2.4mph /  3.9km/h 83% 0in /  0.0mm CLR
21:55 51.3 °F /  10.7 °C 46.6 °F /  8.1 °C 30.3in /  1025.8hPa South 1.8mph /  2.9km/h 2.3mph /  3.7km/h 84% 0in /  0.0mm CLR
22:00 51.3 °F /  10.7 °C 46.6 °F /  8.1 °C 30.3in /  1025.8hPa South 2mph /  3.2km/h 2mph /  3.2km/h 84% 0in /  0.0mm CLR
22:05 51.3 °F /  10.7 °C 46.6 °F /  8.1 °C 30.3in /  1026.0hPa South 2mph /  3.2km/h 3.6mph /  5.8km/h 84% 0in /  0.0mm CLR
22:10 51.3 °F /  10.7 °C 46.2 °F /  7.9 °C 30.3in /  1026.0hPa South 1.4mph /  2.3km/h 2.3mph /  3.7km/h 83% 0in /  0.0mm CLR
22:15 51.3 °F /  10.7 °C 46.2 °F /  7.9 °C 30.3in /  1026.0hPa South 1.4mph /  2.3km/h   83% 0in /  0.0mm CLR
22:20 51.3 °F /  10.7 °C 46.2 °F /  7.9 °C 30.3in /  1025.9hPa South 1.4mph /  2.3km/h   83% 0in /  0.0mm CLR
22:25 51.1 °F /  10.6 °C 46 °F /  7.8 °C 30.3in /  1025.9hPa South 1.4mph /  2.3km/h   83% 0in /  0.0mm CLR
22:30 51.1 °F /  10.6 °C 46 °F /  7.8 °C 30.3in /  1025.9hPa Calm     83% 0in /  0.0mm CLR
22:35 50.7 °F /  10.4 °C 45.3 °F /  7.4 °C 30.3in /  1026.0hPa Calm   5.8mph /  9.3km/h 82% 0in /  0.0mm CLR
22:40 50.4 °F /  10.2 °C 45.1 °F /  7.3 °C 30.3in /  1026.0hPa SE 2.4mph /  3.9km/h 4.6mph /  7.4km/h 82% 0in /  0.0mm CLR
22:45 49.8 °F /  9.9 °C 44.4 °F /  6.9 °C 30.3in /  1026.0hPa SSE 2.4mph /  3.9km/h 4.6mph /  7.4km/h 82% 0in /  0.0mm CLR
22:50 49.5 °F /  9.7 °C 44.4 °F /  6.9 °C 30.3in /  1026.0hPa SSE 3mph /  4.8km/h 6mph /  9.7km/h 83% 0in /  0.0mm CLR
22:55 49.1 °F /  9.5 °C 44.2 °F /  6.8 °C 30.3in /  1026.0hPa SSE 3.1mph /  5.0km/h 5.2mph /  8.4km/h 83% 0in /  0.0mm CLR
23:00 48.9 °F /  9.4 °C 44.2 °F /  6.8 °C 30.3in /  1026.0hPa SSE 3mph /  4.8km/h 5mph /  8.0km/h 84% 0in /  0.0mm CLR
23:05 48.7 °F /  9.3 °C 44.1 °F /  6.7 °C 30.3in /  1026.0hPa South 3.6mph /  5.8km/h 5.8mph /  9.3km/h 84% 0in /  0.0mm CLR
23:10 48.7 °F /  9.3 °C 44.4 °F /  6.9 °C 30.3in /  1026.0hPa SSW 3.6mph /  5.8km/h 4.6mph /  7.4km/h 85% 0in /  0.0mm CLR
23:15 48.7 °F /  9.3 °C 44.4 °F /  6.9 °C 30.3in /  1026.0hPa SW 3.6mph /  5.8km/h 4.6mph /  7.4km/h 85% 0in /  0.0mm CLR
23:20 48.7 °F /  9.3 °C 44.4 °F /  6.9 °C 30.3in /  1026.0hPa SSW 4mph /  6.4km/h 5.2mph /  8.4km/h 85% 0in /  0.0mm CLR
23:25 48.9 °F /  9.4 °C 44.6 °F /  7.0 °C 30.3in /  1026.0hPa SW 4mph /  6.4km/h 4.6mph /  7.4km/h 85% 0in /  0.0mm CLR
23:30 48.9 °F /  9.4 °C 44.6 °F /  7.0 °C 30.3in /  1026.0hPa SW 3.1mph /  5.0km/h 4.6mph /  7.4km/h 85% 0in /  0.0mm CLR
23:35 48.9 °F /  9.4 °C 44.6 °F /  7.0 °C 30.3in /  1026.1hPa SSW 3.1mph /  5.0km/h 4.6mph /  7.4km/h 85% 0in /  0.0mm CLR
23:40 48.9 °F /  9.4 °C 44.6 °F /  7.0 °C 30.3in /  1026.1hPa SW 2.9mph /  4.7km/h 5.8mph /  9.3km/h 85% 0in /  0.0mm CLR
23:45 49.1 °F /  9.5 °C 44.8 °F /  7.1 °C 30.3in /  1026.1hPa SW 2.9mph /  4.7km/h 5.8mph /  9.3km/h 85% 0in /  0.0mm CLR
23:50 49.1 °F /  9.5 °C 44.8 °F /  7.1 °C 30.3in /  1026.0hPa SW 3.1mph /  5.0km/h 5.8mph /  9.3km/h 85% 0in /  0.0mm CLR
23:55 49.3 °F /  9.6 °C 45 °F /  7.2 °C 30.3in /  1026.0hPa SSW 3.1mph /  5.0km/h 5.8mph /  9.3km/h 85% 0in /  0.0mm CLR
Murcia-Puente Tocinos, España
Compliments of Weather Underground - 2.5 mb

La estación de MeteoMurcia.com, publica sus datos en los siguientes proyectos:

Weather Underground PWS IMURCIAP2 Meteoclimatic www.awekas.at

W3Counter
Web Analytics